地図

経路データ

SID SEASON NUMBER BASIN SUBBASIN NAME ISO_TIME NATURE LAT LON WMO_WIND WMO_PRES WMO_AGENCY TRACK_TYPE DIST2LAND LANDFALL IFLAG USA_AGENCY USA_ATCF_ID USA_LAT USA_LON USA_RECORD USA_STATUS USA_WIND USA_PRES USA_SSHS USA_R34_NE USA_R34_SE USA_R34_SW USA_R34_NW USA_R50_NE USA_R50_SE USA_R50_SW USA_R50_NW USA_R64_NE USA_R64_SE USA_R64_SW USA_R64_NW USA_POCI USA_ROCI USA_RMW USA_EYE TOKYO_LAT TOKYO_LON TOKYO_GRADE TOKYO_WIND TOKYO_PRES TOKYO_R50_DIR TOKYO_R50_LONG TOKYO_R50_SHORT TOKYO_R30_DIR TOKYO_R30_LONG TOKYO_R30_SHORT TOKYO_LAND CMA_LAT CMA_LON CMA_CAT CMA_WIND CMA_PRES HKO_LAT HKO_LON HKO_CAT HKO_WIND HKO_PRES NEWDELHI_LAT NEWDELHI_LON NEWDELHI_GRADE NEWDELHI_WIND NEWDELHI_PRES NEWDELHI_CI NEWDELHI_DP NEWDELHI_POCI REUNION_LAT REUNION_LON REUNION_TYPE REUNION_WIND REUNION_PRES REUNION_TNUM REUNION_CI REUNION_RMW REUNION_R34_NE REUNION_R34_SE REUNION_R34_SW REUNION_R34_NW REUNION_R50_NE REUNION_R50_SE REUNION_R50_SW REUNION_R50_NW REUNION_R64_NE REUNION_R64_SE REUNION_R64_SW REUNION_R64_NW BOM_LAT BOM_LON BOM_TYPE BOM_WIND BOM_PRES BOM_TNUM BOM_CI BOM_RMW BOM_R34_NE BOM_R34_SE BOM_R34_SW BOM_R34_NW BOM_R50_NE BOM_R50_SE BOM_R50_SW BOM_R50_NW BOM_R64_NE BOM_R64_SE BOM_R64_SW BOM_R64_NW BOM_ROCI BOM_POCI BOM_EYE BOM_POS_METHOD BOM_PRES_METHOD NADI_LAT NADI_LON NADI_CAT NADI_WIND NADI_PRES WELLINGTON_LAT WELLINGTON_LON WELLINGTON_WIND WELLINGTON_PRES DS824_LAT DS824_LON DS824_STAGE DS824_WIND DS824_PRES TD9636_LAT TD9636_LON TD9636_STAGE TD9636_WIND TD9636_PRES TD9635_LAT TD9635_LON TD9635_WIND TD9635_PRES TD9635_ROCI NEUMANN_LAT NEUMANN_LON NEUMANN_CLASS NEUMANN_WIND NEUMANN_PRES MLC_LAT MLC_LON MLC_CLASS MLC_WIND MLC_PRES USA_GUST BOM_GUST BOM_GUST_PER REUNION_GUST REUNION_GUST_PER USA_SEAHGT USA_SEARAD_NE USA_SEARAD_SE USA_SEARAD_SW USA_SEARAD_NW STORM_SPEED STORM_DIR
1994178N16248 1994 38 EP MM BUD 1994-06-27 06:00:00 TS 15.6000 -112.400 25 1009 hurdat_epa main 854 850 O_____________ hurdat_epa EP021994 15.6000 -112.400 TD 25 1009 -1 7 288
1994178N16248 1994 38 EP MM BUD 1994-06-27 09:00:00 TS 15.7101 -112.750 main 853 850 P_____________ EP021994 15.7101 -112.750 TD 27 1008 -1 7 287
1994178N16248 1994 38 EP MM BUD 1994-06-27 12:00:00 TS 15.8000 -113.100 30 1008 hurdat_epa main 858 858 O_____________ hurdat_epa EP021994 15.8000 -113.100 TD 30 1008 -1 7 282
1994178N16248 1994 38 EP MM BUD 1994-06-27 15:00:00 TS 15.8574 -113.450 main 864 864 P_____________ EP021994 15.8574 -113.450 TD 32 1007 -1 7 278
1994178N16248 1994 38 EP MM BUD 1994-06-27 18:00:00 TS 15.9000 -113.800 35 1006 hurdat_epa main 878 878 O_____________ hurdat_epa EP021994 15.9000 -113.800 TS 35 1006 0 7 278
1994178N16248 1994 38 EP MM BUD 1994-06-27 21:00:00 TS 15.9499 -114.143 main 893 888 P_____________ EP021994 15.9499 -114.143 TS 37 1005 0 7 278
1994178N16248 1994 38 EP MM BUD 1994-06-28 00:00:00 TS 16.0000 -114.500 40 1004 hurdat_epa main 904 904 O_____________ hurdat_epa EP021994 16.0000 -114.500 TS 40 1004 0 7 277
1994178N16248 1994 38 EP MM BUD 1994-06-28 03:00:00 TS 16.0348 -114.863 main 926 923 P_____________ EP021994 16.0348 -114.863 TS 40 1003 0 8 277
1994178N16248 1994 38 EP MM BUD 1994-06-28 06:00:00 TS 16.1000 -115.300 40 1003 hurdat_epa main 941 941 O_____________ hurdat_epa EP021994 16.1000 -115.300 TS 40 1003 0 9 280
1994178N16248 1994 38 EP MM BUD 1994-06-28 09:00:00 TS 16.1895 -115.818 main 964 964 P_____________ EP021994 16.1895 -115.818 TS 37 1003 0 12 285
1994178N16248 1994 38 EP MM BUD 1994-06-28 12:00:00 TS 16.4000 -116.500 35 1004 hurdat_epa main 995 994 O_____________ hurdat_epa EP021994 16.4000 -116.500 TS 35 1004 0 17 292
1994178N16248 1994 38 EP MM BUD 1994-06-28 15:00:00 TS 16.8286 -117.479 main 1039 1031 P_____________ EP021994 16.8286 -117.479 TS 32 1005 -1 20 296
1994178N16248 1994 38 EP MM BUD 1994-06-28 18:00:00 TS 17.3000 -118.400 30 1007 hurdat_epa main 1054 1047 O_____________ hurdat_epa EP021994 17.3000 -118.400 TD 30 1007 -1 15 302
1994178N16248 1994 38 EP MM BUD 1994-06-28 21:00:00 TS 17.6438 -118.831 main 1054 1050 P_____________ EP021994 17.6438 -118.831 TD 30 1007 -1 10 308
1994178N16248 1994 38 EP MM BUD 1994-06-29 00:00:00 TS 17.9000 -119.200 30 1008 hurdat_epa main 1057 1057 O_____________ hurdat_epa EP021994 17.9000 -119.200 TD 30 1008 -1 11 293
1994178N16248 1994 38 EP MM BUD 1994-06-29 03:00:00 TS 18.0879 -119.912 main 1093 1093 P_____________ EP021994 18.0879 -119.912 TD 27 1008 -1 15 282
1994178N16248 1994 38 EP MM BUD 1994-06-29 06:00:00 TS 18.2000 -120.700 25 1009 hurdat_epa main 1147 1147 O_____________ hurdat_epa EP021994 18.2000 -120.700 TD 25 1009 -1 14 277
1994178N16248 1994 38 EP MM BUD 1994-06-29 09:00:00 TS 18.2646 -121.365 main 1196 1196 P_____________ EP021994 18.2646 -121.365 TD 25 1009 -1 12 275
1994178N16248 1994 38 EP MM BUD 1994-06-29 12:00:00 TS 18.3000 -122.000 25 1009 hurdat_epa main 1246 1246 O_____________ hurdat_epa EP021994 18.3000 -122.000 TD 25 1009 -1 12 274
1994178N16248 1994 38 EP MM BUD 1994-06-29 15:00:00 TS 18.3455 -122.645 main 1297 1297 P_____________ EP021994 18.3455 -122.645 TD 22 1009 -1 12 275
1994178N16248 1994 38 EP MM BUD 1994-06-29 18:00:00 TS 18.4000 -123.300 20 1010 hurdat_epa main 1340 O_____________ hurdat_epa EP021994 18.4000 -123.300 TD 20 1010 -1 12 275

IBTrACS Databaseについて

本データベースは、米国NOAAが公開する1842年以降の世界の熱帯低気圧のベストトラックデータアーカイブInternational Best Track Archive for Climate Stewardship (IBTrACS)を、ウェブで閲覧しやすい形式に変換したものです。

最終更新日:2021-10-21